Time;durP1;ratioP1;P1;durP2;ratioP2;P2;SDS_P1;SDS_P2;PMS_P1;PMS_P2;Temp;Humidity;BMP_temperature;BMP_pressure;BME280_temperature;BME280_humidity;BME280_pressure;Samples;Min_cycle;Max_cycle;Signal;HPM_P1;HPM_P2
2022/11/09 00:02:04;;;;;;;49.20;15.98;;;;;;;15.46;71.20;101465.50;5089262;28;20103;-77
2022/11/09 00:04:29;;;;;;;50.45;14.20;;;;;;;15.46;71.52;101466.38;5089682;28;20050;-78
2022/11/09 00:06:55;;;;;;;44.40;16.55;;;;;;;15.43;71.35;101463.94;5088909;28;20029;-77
2022/11/09 00:09:21;;;;;;;35.10;15.30;;;;;;;15.47;71.54;101467.25;5089278;28;20084;-78
2022/11/09 00:11:47;;;;;;;39.40;14.90;;;;;;;15.47;71.57;101468.09;5089280;28;20028;-77
2022/11/09 00:14:14;;;;;;;39.40;15.82;;;;;;;15.42;71.46;101464.06;5089282;28;20020;-78
2022/11/09 00:16:40;;;;;;;28.27;15.13;;;;;;;15.48;71.62;101471.69;5088976;28;20445;-78
2022/11/09 00:19:05;;;;;;;25.40;14.35;;;;;;;15.46;71.70;101470.94;5089340;28;20036;-78
2022/11/09 00:21:31;;;;;;;26.60;13.57;;;;;;;15.21;71.28;101439.69;5089328;28;20028;-76
2022/11/09 00:23:56;;;;;;;37.60;15.27;;;;;;;15.37;71.56;101467.19;5089142;28;20021;-77
2022/11/09 00:26:22;;;;;;;33.78;14.93;;;;;;;15.43;71.52;101465.78;5089045;28;20024;-77
2022/11/09 00:28:49;;;;;;;29.40;14.23;;;;;;;15.42;71.40;101473.06;5089470;28;20039;-76
2022/11/09 00:31:18;;;;;;;28.95;15.07;;;;;;;15.33;71.85;101464.88;5088752;28;20035;-77
2022/11/09 00:33:51;;;;;;;31.83;15.65;;;;;;;15.32;71.61;101465.88;5089275;28;20056;-76
2022/11/09 00:36:18;;;;;;;42.17;15.25;;;;;;;15.13;71.93;101437.69;5089248;28;20185;-78
2022/11/09 00:38:48;;;;;;;34.63;16.33;;;;;;;15.30;71.87;101460.56;5088903;28;20454;-76
2022/11/09 00:41:14;;;;;;;35.58;15.13;;;;;;;15.36;71.92;101465.47;5037964;28;20490;-79
2022/11/09 00:43:40;;;;;;;33.17;14.30;;;;;;;15.39;71.84;101458.91;5089254;28;20039;-78
2022/11/09 00:46:06;;;;;;;29.75;13.88;;;;;;;15.38;71.92;101457.22;5088981;28;20502;-78
2022/11/09 00:48:32;;;;;;;25.55;13.60;;;;;;;15.41;71.77;101455.06;5099501;28;20036;-77
2022/11/09 00:50:58;;;;;;;34.53;13.65;;;;;;;15.43;71.77;101455.81;5105961;28;20025;-78
2022/11/09 00:53:24;;;;;;;27.67;14.63;;;;;;;15.44;71.63;101456.66;5105331;28;20091;-78
2022/11/09 00:55:54;;;;;;;38.40;13.55;;;;;;;15.47;71.81;101461.81;5089235;28;20525;-78
2022/11/09 00:58:20;;;;;;;28.48;13.27;;;;;;;15.19;71.49;101410.06;5088676;28;20116;-78
2022/11/09 01:00:45;;;;;;;62.80;15.05;;;;;;;15.46;71.55;101460.94;5053330;28;20028;-77
2022/11/09 01:03:11;;;;;;;121.68;17.83;;;;;;;15.42;71.82;101451.38;5089158;28;20028;-78
2022/11/09 01:05:40;;;;;;;83.78;15.15;;;;;;;15.48;71.86;101464.41;5089181;28;20072;-76
2022/11/09 01:08:05;;;;;;;47.35;12.15;;;;;;;15.50;71.90;101454.31;5088987;28;20089;-77
2022/11/09 01:10:31;;;;;;;42.17;12.73;;;;;;;15.52;71.74;101454.16;5045971;28;20033;-79
2022/11/09 01:12:57;;;;;;;22.33;12.15;;;;;;;15.52;71.54;101454.16;5046170;28;20029;-77
2022/11/09 01:15:22;;;;;;;26.83;12.68;;;;;;;15.57;71.46;101468.16;5046015;28;20051;-77
2022/11/09 01:17:48;;;;;;;24.38;11.52;;;;;;;15.61;71.52;101462.34;5029596;28;20028;-77
2022/11/09 01:20:15;;;;;;;30.63;11.80;;;;;;;15.56;71.17;101450.19;5050075;28;20037;-79
2022/11/09 01:22:40;;;;;;;46.40;12.07;;;;;;;15.59;71.56;101453.50;5049917;28;20033;-76
2022/11/09 01:25:06;;;;;;;29.80;11.95;;;;;;;15.66;71.04;101456.47;5049798;28;20041;-78
2022/11/09 01:27:32;;;;;;;22.58;11.32;;;;;;;15.70;70.61;101453.38;5049732;28;20032;-77
2022/11/09 01:29:57;;;;;;;27.27;11.85;;;;;;;15.61;70.61;101448.78;5049532;28;20045;-76
2022/11/09 01:32:23;;;;;;;97.13;13.90;;;;;;;15.42;70.92;101413.41;5049583;28;20052;-78
2022/11/09 01:34:48;;;;;;;44.15;10.43;;;;;;;15.72;71.10;101461.34;5049699;28;20049;-78
2022/11/09 01:37:14;;;;;;;32.95;10.45;;;;;;;15.57;70.83;101441.03;5049428;28;20033;-78
2022/11/09 01:39:39;;;;;;;36.47;9.93;;;;;;;15.62;70.83;101438.78;5049557;28;20254;-79
2022/11/09 01:42:05;;;;;;;29.35;10.35;;;;;;;15.72;70.74;101455.94;5080547;28;20070;-78
2022/11/09 01:44:31;;;;;;;28.77;9.95;;;;;;;15.78;70.64;101466.22;5092075;28;20103;-79
2022/11/09 01:47:12;;;;;;;23.23;10.35;;;;;;;15.80;70.54;101458.84;5092455;28;20479;-78
2022/11/09 01:49:44;;;;;;;30.42;10.05;;;;;;;15.85;70.38;101456.56;5092961;28;20032;-77
2022/11/09 01:52:16;;;;;;;31.00;10.55;;;;;;;15.86;70.12;101457.41;5092765;28;20092;-77
2022/11/09 01:54:46;;;;;;;20.50;9.95;;;;;;;15.68;70.27;101433.69;5095391;28;20032;-77
2022/11/09 01:57:21;;;;;;;33.67;10.60;;;;;;;15.72;70.27;101434.22;5101336;28;20027;-78
2022/11/09 01:59:53;;;;;;;31.52;11.23;;;;;;;15.74;70.13;101437.69;5113561;28;20031;-79
2022/11/09 02:02:19;;;;;;;;;;;;;;;15.83;69.85;101453.13;5114953;28;20020;-77
2022/11/09 02:04:53;;;;;;;59.40;11.90;;;;;;;15.81;70.11;101457.81;5103069;28;19912;-78
2022/11/09 02:07:21;;;;;;;45.80;12.48;;;;;;;15.79;70.17;101459.81;5091428;28;20042;-77
2022/11/09 02:10:09;;;;;;;38.03;12.95;;;;;;;15.68;70.38;101424.69;5091989;28;20043;-77
2022/11/09 02:12:34;;;;;;;37.47;13.05;;;;;;;15.82;70.00;101456.81;5091306;28;20139;-77
2022/11/09 02:15:05;;;;;;;48.40;17.30;;;;;;;15.82;70.22;101454.13;5091879;28;20036;-77
2022/11/09 02:17:32;;;;;;;57.53;17.52;;;;;;;15.85;69.91;101455.69;5073024;28;20453;-77
2022/11/09 02:19:58;;;;;;;44.58;14.65;;;;;;;15.86;69.74;101462.84;5091372;28;20030;-76
2022/11/09 02:22:24;;;;;;;26.90;12.40;;;;;;;15.75;69.51;101433.97;5091184;28;20517;-79
2022/11/09 02:24:49;;;;;;;31.42;12.45;;;;;;;15.89;69.33;101463.44;5091668;28;20517;-78
2022/11/09 02:27:15;;;;;;;44.13;13.73;;;;;;;15.91;69.54;101456.00;5091400;28;20036;-77
2022/11/09 02:29:43;;;;;;;37.25;10.65;;;;;;;15.86;69.67;101447.44;5090095;28;20031;-78
2022/11/09 02:32:13;;;;;;;28.13;11.00;;;;;;;15.83;69.48;101439.56;5091094;28;20044;-78
2022/11/09 02:34:39;;;;;;;69.70;13.73;;;;;;;15.93;69.72;101464.84;5091355;28;20123;-77
2022/11/09 02:37:05;;;;;;;46.42;12.25;;;;;;;15.90;69.64;101458.88;5091335;28;20120;-79
2022/11/09 02:39:31;;;;;;;41.55;11.38;;;;;;;15.91;69.49;101461.41;5091665;28;20525;-78
2022/11/09 02:42:04;;;;;;;25.35;11.52;;;;;;;15.97;69.23;101454.56;5091197;28;20101;-79
2022/11/09 02:44:36;;;;;;;30.88;11.65;;;;;;;15.94;69.40;101450.28;5090517;28;20032;-78
2022/11/09 02:47:02;;;;;;;153.90;15.77;;;;;;;15.99;69.56;101452.59;5091064;28;20020;-77
2022/11/09 02:49:27;;;;;;;91.72;14.88;;;;;;;15.98;69.60;101453.59;5090832;28;20516;-77
2022/11/09 02:51:52;;;;;;;46.28;10.70;;;;;;;15.96;69.51;101456.41;5072690;28;20877;-78
2022/11/09 02:54:18;;;;;;;23.20;9.35;;;;;;;15.89;69.43;101443.56;5090751;28;20706;-77
2022/11/09 02:56:43;;;;;;;66.80;9.65;;;;;;;15.95;69.47;101452.00;5090471;28;20419;-78
2022/11/09 02:59:09;;;;;;;33.30;9.68;;;;;;;15.82;69.50;101435.13;5090567;28;20115;-78
2022/11/09 03:01:34;;;;;;;30.13;9.65;;;;;;;15.85;69.65;101442.97;5091383;28;20063;-78
2022/11/09 03:04:00;;;;;;;29.55;11.07;;;;;;;15.92;69.87;101463.16;5090799;28;20020;-77
2022/11/09 03:06:33;;;;;;;15.80;9.07;;;;;;;15.91;69.61;101458.72;5090461;28;20024;-77
2022/11/09 03:09:04;;;;;;;112.30;14.90;;;;;;;15.96;69.52;101458.31;5103342;28;20367;-77
2022/11/09 03:11:29;;;;;;;66.28;12.07;;;;;;;15.95;69.63;101462.88;5109230;28;20032;-78
2022/11/09 03:13:55;;;;;;;340.38;31.85;;;;;;;15.94;69.75;101458.44;5106455;28;20032;-77
2022/11/09 03:16:21;;;;;;;114.22;15.70;;;;;;;15.92;69.59;101457.72;5090465;28;20016;-78
2022/11/09 03:18:46;;;;;;;29.80;10.70;;;;;;;15.85;69.55;101451.13;5090280;28;20043;-78
2022/11/09 03:21:12;;;;;;;24.48;10.18;;;;;;;15.74;69.69;101434.97;5090555;28;20028;-78
2022/11/09 03:23:37;;;;;;;24.63;11.50;;;;;;;15.82;69.72;101454.13;5090075;28;20031;-78
2022/11/09 03:26:03;;;;;;;44.47;10.85;;;;;;;15.89;70.05;101465.28;5089999;28;20062;-77
2022/11/09 03:28:28;;;;;;;29.92;9.32;;;;;;;15.87;70.12;101454.53;5037319;28;20066;-78
2022/11/09 03:30:54;;;;;;;31.25;10.38;;;;;;;15.88;70.15;101452.69;5092186;28;20046;-79
2022/11/09 03:33:19;;;;;;;60.83;10.88;;;;;;;15.85;70.23;101459.25;5091044;28;20062;-80
2022/11/09 03:35:45;;;;;;;44.95;10.63;;;;;;;15.80;70.11;101442.56;5090009;28;20570;-77
2022/11/09 03:38:11;;;;;;;34.25;10.65;;;;;;;15.87;70.36;101459.97;5089767;28;20020;-79
2022/11/09 03:40:36;;;;;;;35.65;11.68;;;;;;;15.85;70.17;101459.25;5089837;28;20059;-77
2022/11/09 03:43:02;;;;;;;40.03;10.77;;;;;;;15.86;70.34;101452.84;5089606;28;20012;-78
2022/11/09 03:45:27;;;;;;;28.55;10.05;;;;;;;15.72;70.13;101439.66;5089485;28;20035;-78
2022/11/09 03:47:58;;;;;;;28.98;10.98;;;;;;;15.75;70.28;101440.25;5089706;28;20028;-77
2022/11/09 03:50:25;;;;;;;19.20;10.70;;;;;;;15.83;70.01;101453.13;5071168;28;20031;-77
2022/11/09 03:52:50;;;;;;;22.98;9.93;;;;;;;15.77;69.90;101449.13;5089601;28;20024;-77
2022/11/09 03:55:16;;;;;;;28.80;10.38;;;;;;;15.75;69.99;101444.81;5089485;28;20452;-78
2022/11/09 03:57:44;;;;;;;25.05;10.48;;;;;;;15.79;70.23;101454.38;5089511;28;20024;-77
2022/11/09 04:00:11;;;;;;;28.98;12.40;;;;;;;15.76;70.12;101446.53;5089507;28;20060;-78
2022/11/09 04:02:37;;;;;;;25.05;10.95;;;;;;;15.78;69.74;101450.81;5089491;28;20447;-77
2022/11/09 04:05:02;;;;;;;25.75;10.43;;;;;;;15.75;69.81;101447.50;5089332;28;20111;-78
2022/11/09 04:07:28;;;;;;;24.02;9.95;;;;;;;15.76;69.74;101443.81;5089435;28;20096;-79
2022/11/09 04:09:53;;;;;;;17.73;11.07;;;;;;;15.58;69.32;101416.50;5089650;28;20024;-78
2022/11/09 04:12:18;;;;;;;22.90;9.73;;;;;;;15.78;69.89;101458.09;5090104;28;20031;-79
2022/11/09 04:14:44;;;;;;;18.90;9.43;;;;;;;15.82;69.45;101454.13;5089747;28;20028;-78
2022/11/09 04:17:09;;;;;;;30.15;9.52;;;;;;;15.78;69.38;101452.66;5089844;28;20028;-78
2022/11/09 04:19:35;;;;;;;34.80;12.00;;;;;;;15.81;69.44;101452.38;5102792;28;20035;-78
2022/11/09 04:22:00;;;;;;;19.45;9.75;;;;;;;15.84;69.53;101460.25;5106232;28;20032;-77
2022/11/09 04:24:25;;;;;;;18.00;10.63;;;;;;;15.83;69.35;101457.69;5098764;28;20020;-77
2022/11/09 04:26:51;;;;;;;20.75;8.68;;;;;;;15.88;69.26;101467.13;5088993;28;20138;-76
2022/11/09 04:29:16;;;;;;;43.10;12.27;;;;;;;15.90;69.27;101467.84;5089168;28;20440;-78
2022/11/09 04:31:42;;;;;;;23.90;10.10;;;;;;;15.90;68.97;101456.97;5088984;28;20035;-77
2022/11/09 04:34:07;;;;;;;37.15;12.10;;;;;;;15.88;68.93;101445.41;5070634;28;20511;-78
2022/11/09 04:36:32;;;;;;;18.40;9.73;;;;;;;15.96;68.71;101463.72;5070571;28;20055;-78
2022/11/09 04:38:58;;;;;;;20.25;10.10;;;;;;;15.96;69.00;101463.72;5089056;28;20030;-77
2022/11/09 04:41:23;;;;;;;48.05;10.32;;;;;;;15.82;68.87;101429.69;5088970;28;20032;-76
2022/11/09 04:43:49;;;;;;;138.60;17.48;;;;;;;15.96;68.76;101458.31;5088901;28;20027;-76
2022/11/09 04:46:14;;;;;;;171.40;21.50;;;;;;;15.93;68.93;101464.84;5088855;28;20097;-78
2022/11/09 04:48:40;;;;;;;124.75;18.70;;;;;;;15.87;69.09;101465.41;5089173;28;20543;-76
2022/11/09 04:51:09;;;;;;;139.82;19.08;;;;;;;15.87;69.08;101470.81;5088583;28;20032;-78
2022/11/09 04:53:35;;;;;;;107.30;20.20;;;;;;;15.86;68.88;101470.97;5072267;28;20020;-76
2022/11/09 04:56:01;;;;;;;82.18;17.05;;;;;;;15.85;68.61;101478.25;5092639;28;20032;-76
2022/11/09 04:58:27;;;;;;;88.68;18.83;;;;;;;15.87;68.42;101473.53;5092859;28;20482;-77
2022/11/09 05:00:53;;;;;;;64.30;17.42;;;;;;;15.56;68.16;101434.78;5092606;28;20063;-76
2022/11/09 05:03:18;;;;;;;33.30;16.80;;;;;;;15.69;67.88;101453.50;5092541;28;20031;-77
2022/11/09 05:05:44;;;;;;;41.78;17.38;;;;;;;15.72;67.60;101492.06;5092321;28;20046;-77
2022/11/09 05:08:10;;;;;;;35.72;18.30;;;;;;;15.70;67.60;101493.19;5092341;28;20024;-76
2022/11/09 05:10:36;;;;;;;42.17;20.95;;;;;;;15.53;67.85;101464.00;5092138;28;20032;-77
2022/11/09 05:13:11;;;;;;;61.05;26.30;;;;;;;15.59;67.61;101482.44;5092279;28;20024;-78
2022/11/09 05:15:37;;;;;;;69.05;28.77;;;;;;;15.61;67.41;101496.72;5092379;28;20032;-77
2022/11/09 05:18:04;;;;;;;116.88;29.88;;;;;;;15.62;67.74;101495.75;5092231;28;20032;-77
2022/11/09 05:20:29;;;;;;;78.15;30.67;;;;;;;15.61;67.51;101494.00;5092927;28;20024;-79
2022/11/09 05:25:41;;;;;;;60.85;29.50;;;;;;;15.55;67.78;101505.41;5092171;28;20501;-78
2022/11/09 05:28:07;;;;;;;87.88;31.15;;;;;;;15.55;68.20;101508.09;5093278;28;20032;-76
2022/11/09 05:30:32;;;;;;;89.55;31.20;;;;;;;15.45;67.99;101499.03;5100855;28;20016;-79
2022/11/09 05:32:57;;;;;;;75.88;29.92;;;;;;;15.57;68.44;101506.13;5092164;28;20076;-79
2022/11/09 05:35:23;;;;;;;80.93;31.63;;;;;;;15.48;68.46;101507.78;5080027;28;20120;-78
2022/11/09 05:37:49;;;;;;;62.78;30.40;;;;;;;15.52;68.35;101516.50;5071402;28;20028;-78
2022/11/09 05:40:16;;;;;;;81.90;29.80;;;;;;;15.53;68.35;101519.09;5071615;28;20035;-75
2022/11/09 05:42:42;;;;;;;71.63;33.03;;;;;;;15.52;68.36;101524.66;5071928;28;20025;-77
2022/11/09 05:45:09;;;;;;;123.70;33.15;;;;;;;15.46;68.61;101526.03;5071885;28;20380;-77
2022/11/09 05:47:39;;;;;;;61.72;27.80;;;;;;;15.54;68.53;101533.50;5072082;28;20468;-80
2022/11/09 05:50:06;;;;;;;246.52;39.78;;;;;;;15.52;68.51;101527.38;5071873;28;20042;-82
2022/11/09 05:52:32;;;;;;;105.13;29.27;;;;;;;15.62;68.44;101536.41;5072074;28;20085;-78
2022/11/09 05:54:59;;;;;;;75.90;27.90;;;;;;;15.52;68.43;101519.22;5071614;28;20032;-77
2022/11/09 05:57:25;;;;;;;60.50;25.77;;;;;;;15.69;68.21;101538.44;5071545;28;20036;-76
2022/11/09 05:59:50;;;;;;;50.20;23.17;;;;;;;15.69;68.07;101548.41;5071599;28;20043;-76
2022/11/09 06:02:16;;;;;;;94.13;28.58;;;;;;;15.66;67.74;101538.72;5071243;28;20038;-76
2022/11/09 06:04:41;;;;;;;87.03;32.80;;;;;;;15.63;67.93;101538.97;5071056;28;20085;-77
2022/11/09 06:07:06;;;;;;;61.40;22.67;;;;;;;15.64;67.83;101553.41;5071806;28;20108;-77
2022/11/09 06:09:32;;;;;;;60.60;25.27;;;;;;;15.64;67.91;101556.09;5071071;28;20027;-76
2022/11/09 06:11:57;;;;;;;50.28;22.60;;;;;;;15.62;67.81;101548.13;5071725;28;20098;-77
2022/11/09 06:14:23;;;;;;;66.68;22.05;;;;;;;15.71;67.96;101551.88;5071048;28;20103;-77
2022/11/09 06:16:48;;;;;;;55.05;23.25;;;;;;;15.71;67.96;101554.59;5071091;28;20115;-77
2022/11/09 06:19:13;;;;;;;58.35;24.23;;;;;;;15.70;67.90;101550.16;5071341;28;20461;-76
2022/11/09 06:21:39;;;;;;;77.75;23.77;;;;;;;15.70;68.16;101556.44;5071841;28;20029;-77
2022/11/09 06:24:05;;;;;;;73.15;24.92;;;;;;;15.47;68.03;101533.16;5091594;28;20043;-78
2022/11/09 06:26:30;;;;;;;81.57;24.73;;;;;;;15.68;68.36;101557.56;5091592;28;20028;-77
2022/11/09 06:28:56;;;;;;;77.70;26.23;;;;;;;15.76;68.16;101555.91;5091637;28;20039;-79
2022/11/09 06:31:21;;;;;;;71.88;23.20;;;;;;;15.82;68.20;101570.75;5074271;28;20028;-76
2022/11/09 06:33:47;;;;;;;67.97;24.00;;;;;;;15.84;68.36;101562.50;5091307;28;20063;-76
2022/11/09 06:36:12;;;;;;;80.63;24.95;;;;;;;15.84;68.23;101557.06;5055592;28;20132;-74
2022/11/09 06:38:38;;;;;;;98.45;35.15;;;;;;;15.90;67.85;101548.41;5102017;28;20027;-78
2022/11/09 06:41:04;;;;;;;66.18;31.02;;;;;;;16.09;67.69;101567.44;5109283;28;20034;-76
2022/11/09 06:43:29;;;;;;;58.22;24.13;;;;;;;15.96;67.39;101545.97;5108054;28;20024;-77
2022/11/09 06:45:55;;;;;;;88.85;26.90;;;;;;;16.12;67.49;101565.31;5091604;28;20052;-77
2022/11/09 06:48:21;;;;;;;230.13;46.53;;;;;;;16.05;67.54;101555.16;5090795;28;20024;-78
2022/11/09 06:50:46;;;;;;;98.70;28.98;;;;;;;16.14;67.54;101557.91;5038373;28;20059;-77
2022/11/09 06:53:14;;;;;;;80.13;27.40;;;;;;;16.13;67.56;101574.31;5091062;28;20036;-76
2022/11/09 06:55:39;;;;;;;507.13;70.82;;;;;;;15.91;67.29;101529.25;5090079;28;20414;-76
2022/11/09 06:58:10;;;;;;;111.43;37.70;;;;;;;16.19;67.40;101579.19;5090991;28;20039;-77
2022/11/09 07:00:36;;;;;;;109.13;28.90;;;;;;;16.19;67.72;101577.34;5090609;28;20031;-77
2022/11/09 07:03:02;;;;;;;86.82;29.15;;;;;;;16.27;67.41;101574.78;5091195;28;20028;-77
2022/11/09 07:05:27;;;;;;;154.95;56.88;;;;;;;16.33;67.06;101567.94;5091044;28;20024;-79
2022/11/09 07:07:53;;;;;;;124.75;45.65;;;;;;;16.20;67.23;101575.50;5091545;28;20027;-79
2022/11/09 07:10:19;;;;;;;94.53;34.83;;;;;;;16.22;67.29;101558.06;5056042;28;20115;-80
2022/11/09 07:12:44;;;;;;;237.77;45.53;;;;;;;16.19;66.78;101552.91;5072714;28;20055;-81
2022/11/09 07:15:11;;;;;;;135.00;38.72;;;;;;;16.31;66.55;101573.53;5090635;28;20027;-78
2022/11/09 07:17:38;;;;;;;112.07;32.10;;;;;;;16.33;66.43;101581.50;5090323;28;20115;-79
2022/11/09 07:20:05;;;;;;;142.20;35.67;;;;;;;16.15;66.91;101572.31;5091473;28;20487;-79
2022/11/09 07:22:33;;;;;;;82.03;33.13;;;;;;;16.01;68.24;101560.00;5090238;28;20083;-79
2022/11/09 07:24:59;;;;;;;99.03;35.50;;;;;;;15.89;67.41;101536.69;5091637;28;20028;-79
2022/11/09 07:27:24;;;;;;;201.07;43.00;;;;;;;15.87;67.66;101587.47;5097327;28;20028;-81
2022/11/09 07:29:50;;;;;;;125.32;35.42;;;;;;;15.65;68.63;101558.72;5097386;28;20053;-80
2022/11/09 07:32:15;;;;;;;77.90;32.78;;;;;;;15.86;68.47;101576.78;5091695;28;20039;-78
2022/11/09 07:34:41;;;;;;;101.60;33.45;;;;;;;15.94;68.62;101572.38;5091174;28;20123;-78
2022/11/09 07:37:06;;;;;;;108.22;33.33;;;;;;;15.95;68.42;101573.25;5090851;28;20024;-79
2022/11/09 07:39:33;;;;;;;114.70;36.03;;;;;;;16.05;68.38;101569.59;5090757;28;20081;-77
2022/11/09 07:41:58;;;;;;;162.18;42.28;;;;;;;16.12;67.83;101570.75;5090439;28;20030;-78
2022/11/09 07:44:23;;;;;;;181.13;43.28;;;;;;;16.23;67.64;101567.94;5091392;28;20032;-80
2022/11/09 07:46:49;;;;;;;213.98;53.63;;;;;;;16.32;67.21;101568.97;5092969;28;20024;-77
2022/11/09 07:49:16;;;;;;;93.43;34.17;;;;;;;16.20;67.31;101542.94;5052314;28;20066;-79
2022/11/09 07:51:42;;;;;;;226.43;43.13;;;;;;;16.36;68.05;101567.66;5107817;28;20020;-77
2022/11/09 07:54:08;;;;;;;125.03;39.92;;;;;;;16.36;67.91;101569.53;5096138;28;20031;-76
2022/11/09 07:56:34;;;;;;;95.57;34.67;;;;;;;16.38;67.38;101572.97;5089626;28;20523;-78
2022/11/09 07:59:00;;;;;;;100.85;37.05;;;;;;;16.25;66.59;101541.50;5089538;28;20134;-80
2022/11/09 08:01:26;;;;;;;101.97;36.95;;;;;;;16.59;66.19;101576.47;5089336;28;20060;-81
2022/11/09 08:03:52;;;;;;;128.13;37.97;;;;;;;16.43;66.51;101573.41;5089631;28;20376;-79
2022/11/09 08:06:18;;;;;;;115.05;36.67;;;;;;;16.36;66.41;101581.25;5088626;28;20475;-78
2022/11/09 08:08:44;;;;;;;89.85;36.45;;;;;;;16.48;66.29;101584.72;5089002;28;20057;-79
2022/11/09 08:11:09;;;;;;;137.95;37.80;;;;;;;16.60;65.85;101589.06;5088556;28;20112;-77
2022/11/09 08:13:34;;;;;;;116.80;37.95;;;;;;;16.50;65.85;101566.41;5089405;28;20038;-77
2022/11/09 08:16:01;;;;;;;95.20;37.08;;;;;;;16.66;65.89;101588.50;5088450;28;20043;-77
2022/11/09 08:18:27;;;;;;;107.75;37.67;;;;;;;16.67;66.05;101585.63;5089077;28;20119;-76
2022/11/09 08:20:53;;;;;;;106.43;35.70;;;;;;;16.72;65.99;101580.66;5089310;28;20106;-78
2022/11/09 08:23:19;;;;;;;75.53;26.50;;;;;;;16.82;66.67;101584.22;5089016;28;20040;-77
2022/11/09 08:25:46;;;;;;;71.22;19.67;;;;;;;16.66;67.87;101555.91;5089370;28;20024;-82
2022/11/09 08:28:12;;;;;;;52.90;17.05;;;;;;;16.72;68.21;101582.50;5071406;28;20173;-77
2022/11/09 08:30:37;;;;;;;35.78;17.73;;;;;;;16.71;68.66;101586.22;5093480;28;20729;-76
2022/11/09 08:33:03;;;;;;;85.50;29.63;;;;;;;16.70;68.44;101589.91;5093095;28;20101;-76
2022/11/09 08:35:30;;;;;;;82.57;41.25;;;;;;;16.66;67.50;101583.06;5092985;28;20051;-77
2022/11/09 08:37:55;;;;;;;104.30;44.47;;;;;;;16.82;67.18;101583.34;5093030;28;20109;-75
2022/11/09 08:40:23;;;;;;;102.90;36.72;;;;;;;16.79;66.67;101567.34;5092501;28;20697;-75
2022/11/09 08:42:49;;;;;;;179.75;46.22;;;;;;;16.81;66.44;101578.94;5092733;28;20043;-75
2022/11/09 08:45:15;;;;;;;87.07;37.47;;;;;;;16.55;67.53;101551.44;5092622;28;20028;-74
2022/11/09 08:47:41;;;;;;;112.38;43.92;;;;;;;16.88;67.01;101588.22;5092485;28;20103;-77
2022/11/09 08:50:08;;;;;;;101.97;35.55;;;;;;;16.93;66.60;101580.53;5093257;28;20166;-75
2022/11/09 08:52:34;;;;;;;43.47;21.40;;;;;;;16.84;67.63;101582.25;5093366;28;20097;-77
2022/11/09 08:55:00;;;;;;;86.13;21.05;;;;;;;16.78;67.99;101590.97;5093355;28;20538;-76
2022/11/09 08:57:26;;;;;;;41.22;17.42;;;;;;;16.77;68.03;101561.19;5102284;28;20030;-78
2022/11/09 08:59:51;;;;;;;30.60;16.02;;;;;;;16.88;67.55;101567.34;5106537;28;20025;-77
2022/11/09 09:02:17;;;;;;;37.35;17.23;;;;;;;17.04;67.39;101587.66;5086527;28;20032;-76
2022/11/09 09:04:42;;;;;;;41.15;15.63;;;;;;;16.99;67.49;101581.81;5093168;28;20035;-75
2022/11/09 09:07:08;;;;;;;34.90;16.63;;;;;;;16.93;68.01;101575.09;5092736;28;20028;-77
2022/11/09 09:09:34;;;;;;;51.10;17.48;;;;;;;16.98;68.19;101589.09;5092705;28;20040;-75
2022/11/09 09:11:59;;;;;;;42.85;17.10;;;;;;;17.03;68.33;101585.97;5092042;28;20038;-75
2022/11/09 09:14:25;;;;;;;58.15;18.02;;;;;;;17.13;68.00;101576.78;5092936;28;20089;-76
2022/11/09 09:16:51;;;;;;;28.83;16.35;;;;;;;17.08;67.55;101589.97;5092361;28;20035;-78
2022/11/09 09:19:17;;;;;;;29.52;14.38;;;;;;;16.98;67.01;101586.38;5092963;28;20032;-77
2022/11/09 09:21:42;;;;;;;47.40;15.02;;;;;;;17.03;66.70;101581.34;5092172;28;20020;-76
2022/11/09 09:24:08;;;;;;;99.95;20.25;;;;;;;17.08;66.32;101579.09;5092092;28;20059;-77
2022/11/09 09:26:34;;;;;;;36.72;16.13;;;;;;;17.12;66.55;101577.81;5085514;28;20023;-78
2022/11/09 09:28:59;;;;;;;32.85;15.82;;;;;;;17.03;65.91;101558.78;5071929;28;20037;-77
2022/11/09 09:31:25;;;;;;;54.05;15.07;;;;;;;17.13;66.25;101571.34;5072391;28;20555;-77
2022/11/09 09:33:50;;;;;;;56.40;17.10;;;;;;;17.18;65.83;101579.09;5072075;28;20048;-78
2022/11/09 09:36:19;;;;;;;63.55;16.98;;;;;;;16.95;66.47;101551.34;5072058;28;20127;-77
2022/11/09 09:38:44;;;;;;;50.92;16.88;;;;;;;17.07;66.67;101571.94;5071398;28;20032;-77
2022/11/09 09:41:25;;;;;;;65.35;16.75;;;;;;;17.09;67.20;101567.22;5071623;28;20174;-76
2022/11/09 09:43:55;;;;;;;61.10;15.57;;;;;;;17.09;66.93;101575.38;5071902;28;20074;-76
2022/11/09 09:46:38;;;;;;;39.50;14.40;;;;;;;17.01;67.60;101569.78;5053986;28;20027;-76
2022/11/09 09:49:11;;;;;;;101.20;18.48;;;;;;;16.97;67.67;101562.91;5071472;28;20028;-76
2022/11/09 09:51:41;;;;;;;115.22;16.77;;;;;;;17.00;66.91;101561.78;5071698;28;20131;-78
2022/11/09 09:54:42;;;;;;;28.63;15.20;;;;;;;16.96;67.82;101574.81;5071838;28;20112;-76
2022/11/09 09:57:20;;;;;;;53.80;14.00;;;;;;;16.87;68.05;101556.63;5071170;28;20029;-76
2022/11/09 09:59:51;;;;;;;48.00;15.50;;;;;;;16.97;67.69;101553.94;5072348;28;20040;-76
2022/11/09 10:02:26;;;;;;;45.72;14.65;;;;;;;16.98;67.24;101559.19;5071758;28;20056;-76
2022/11/09 10:04:55;;;;;;;27.90;13.60;;;;;;;17.06;67.08;101553.06;5071367;28;20028;-77
2022/11/09 10:07:36;;;;;;;24.30;13.00;;;;;;;16.94;67.28;101549.59;5088087;28;20510;-78
2022/11/09 10:10:02;;;;;;;26.30;15.63;;;;;;;17.03;67.32;101554.19;5088753;28;20040;-77
2022/11/09 10:12:41;;;;;;;24.88;14.05;;;;;;;17.10;67.07;101549.91;5079518;28;20029;-78
2022/11/09 10:15:27;;;;;;;26.73;13.15;;;;;;;17.13;66.94;101551.47;5071709;28;20024;-78
2022/11/09 10:18:11;;;;;;;47.55;16.55;;;;;;;17.18;67.14;101547.34;5071804;28;20067;-77
2022/11/09 10:20:51;;;;;;;58.22;14.60;;;;;;;17.05;66.98;101554.91;5071912;28;20063;-77
2022/11/09 10:23:35;;;;;;;54.45;13.07;;;;;;;17.02;67.14;101548.91;5085809;28;20494;-77
2022/11/09 10:26:13;;;;;;;26.90;13.30;;;;;;;17.10;67.27;101543.59;5091473;28;20114;-78
2022/11/09 10:28:41;;;;;;;163.27;21.70;;;;;;;17.14;66.95;101528.72;5092290;28;20028;-76
2022/11/09 10:31:20;;;;;;;154.88;18.52;;;;;;;16.98;66.75;101503.97;5091906;28;20024;-78
2022/11/09 10:34:02;;;;;;;27.60;12.05;;;;;;;17.00;66.40;101529.19;5091786;28;20094;-78
2022/11/09 10:36:44;;;;;;;23.38;11.93;;;;;;;17.05;66.40;101505.13;5091767;28;20034;-78
2022/11/09 10:39:13;;;;;;;40.03;14.48;;;;;;;17.33;65.81;101529.56;5091260;28;20031;-78
2022/11/09 10:41:43;;;;;;;31.27;12.85;;;;;;;17.47;65.74;101532.78;5073262;28;20493;-77
2022/11/09 10:44:16;;;;;;;63.28;13.43;;;;;;;17.60;64.80;101526.06;5091461;28;20024;-76
2022/11/09 10:47:06;;;;;;;174.77;19.98;;;;;;;17.59;64.54;101527.06;5091196;28;20484;-77
2022/11/09 10:49:33;;;;;;;81.82;13.35;;;;;;;17.51;64.18;101504.31;5091129;28;20111;-78
2022/11/09 10:51:59;;;;;;;25.17;12.65;;;;;;;17.26;64.14;101479.47;5089528;28;20520;-78
2022/11/09 10:54:34;;;;;;;41.85;12.15;;;;;;;17.59;64.07;101513.47;5093714;28;20020;-82
2022/11/09 10:57:10;;;;;;;34.33;12.73;;;;;;;17.33;64.10;101515.09;5093895;28;20119;-84
2022/11/09 10:59:42;;;;;;;45.63;13.15;;;;;;;17.43;64.61;101524.06;5091908;28;20036;-81
2022/11/09 11:02:25;;;;;;;49.95;12.98;;;;;;;17.40;64.35;101522.50;5093446;28;20104;-81
2022/11/09 11:05:06;;;;;;;32.40;11.50;;;;;;;17.46;64.50;101517.50;5092284;28;20024;-81
2022/11/09 11:07:34;;;;;;;37.42;10.77;;;;;;;17.45;64.02;101521.22;5092902;28;20035;-78
2022/11/09 11:10:28;;;;;;;34.17;10.32;;;;;;;17.41;64.16;101518.78;5093500;28;20470;-82
2022/11/09 11:13:19;;;;;;;24.42;11.98;;;;;;;17.38;64.38;101519.09;4989476;28;20042;-79
2022/11/09 11:15:45;;;;;;;27.13;11.25;;;;;;;17.30;64.54;101512.66;5006091;28;20035;-81